Frametown, West Virginia
Current Conditions -  °F | °C
As of 11:55 PM on Friday 21 Nov 2014 (Local Time) from KW22 Reporting Station
Clear Clear  
Wind Chill: 19°   Ceiling: Unl
Heat Index: 19°   Visibility: 10mi
Dew Point: 10°   Wind: 0mph
Humidity: 68%   Direction: NA
Pressure: 30.41"   Gusts: NA
Location:  38.64°N, 80.86°W
Report Text: KW22 220455Z AUTO 00000KT 10SM CLR M07/M12 A3041 RMK AO2
Loading
Personal Weather Stations






























Interactive Weather Map New forecast layout! Learn more

10-Day Weather Forecast

Advertisements
Track Severe Weather on mobile